sensor_id;sensor_type;location;lat;lon;timestamp;P1;durP1;ratioP1;P2;durP2;ratioP2
69030;SDS011;56083;48.774;8.942;2023-09-08T00:01:55;14.50;;;9.00;;
69030;SDS011;56083;48.774;8.942;2023-09-08T00:04:20;14.45;;;9.00;;
69030;SDS011;56083;48.774;8.942;2023-09-08T00:06:46;17.08;;;9.35;;
69030;SDS011;56083;48.774;8.942;2023-09-08T00:09:12;14.70;;;9.23;;
69030;SDS011;56083;48.774;8.942;2023-09-08T00:11:38;13.65;;;8.82;;
69030;SDS011;56083;48.774;8.942;2023-09-08T00:14:03;18.45;;;9.00;;
69030;SDS011;56083;48.774;8.942;2023-09-08T00:16:29;18.20;;;8.90;;
69030;SDS011;56083;48.774;8.942;2023-09-08T00:18:55;14.18;;;9.32;;
69030;SDS011;56083;48.774;8.942;2023-09-08T00:21:23;14.48;;;9.60;;
69030;SDS011;56083;48.774;8.942;2023-09-08T00:23:49;13.82;;;9.85;;
69030;SDS011;56083;48.774;8.942;2023-09-08T00:26:15;12.52;;;9.32;;
69030;SDS011;56083;48.774;8.942;2023-09-08T00:28:41;14.05;;;9.70;;
69030;SDS011;56083;48.774;8.942;2023-09-08T00:31:07;14.93;;;9.82;;
69030;SDS011;56083;48.774;8.942;2023-09-08T00:33:32;15.43;;;10.07;;
69030;SDS011;56083;48.774;8.942;2023-09-08T00:35:58;15.55;;;9.93;;
69030;SDS011;56083;48.774;8.942;2023-09-08T00:38:24;17.20;;;9.85;;
69030;SDS011;56083;48.774;8.942;2023-09-08T00:40:50;18.55;;;10.60;;
69030;SDS011;56083;48.774;8.942;2023-09-08T00:43:16;14.45;;;10.02;;
69030;SDS011;56083;48.774;8.942;2023-09-08T00:45:42;16.52;;;10.30;;
69030;SDS011;56083;48.774;8.942;2023-09-08T00:48:08;13.05;;;10.02;;
69030;SDS011;56083;48.774;8.942;2023-09-08T00:50:35;15.35;;;10.20;;
69030;SDS011;56083;48.774;8.942;2023-09-08T00:53:03;20.63;;;10.35;;
69030;SDS011;56083;48.774;8.942;2023-09-08T00:55:29;12.00;;;9.30;;
69030;SDS011;56083;48.774;8.942;2023-09-08T00:57:56;16.30;;;10.10;;
69030;SDS011;56083;48.774;8.942;2023-09-08T01:00:23;13.55;;;9.48;;
69030;SDS011;56083;48.774;8.942;2023-09-08T01:02:49;15.57;;;9.02;;
69030;SDS011;56083;48.774;8.942;2023-09-08T01:05:15;12.15;;;9.50;;
69030;SDS011;56083;48.774;8.942;2023-09-08T01:07:41;15.68;;;9.07;;
69030;SDS011;56083;48.774;8.942;2023-09-08T01:10:08;17.17;;;9.43;;
69030;SDS011;56083;48.774;8.942;2023-09-08T01:12:34;13.57;;;9.95;;
69030;SDS011;56083;48.774;8.942;2023-09-08T01:15:00;16.63;;;9.77;;
69030;SDS011;56083;48.774;8.942;2023-09-08T01:17:33;15.40;;;9.43;;
69030;SDS011;56083;48.774;8.942;2023-09-08T01:20:18;12.85;;;9.73;;
69030;SDS011;56083;48.774;8.942;2023-09-08T01:23:21;12.00;;;9.43;;
69030;SDS011;56083;48.774;8.942;2023-09-08T01:26:00;13.88;;;9.52;;
69030;SDS011;56083;48.774;8.942;2023-09-08T01:28:32;12.85;;;9.48;;
69030;SDS011;56083;48.774;8.942;2023-09-08T01:30:58;14.65;;;9.95;;
69030;SDS011;56083;48.774;8.942;2023-09-08T01:33:24;13.30;;;9.60;;
69030;SDS011;56083;48.774;8.942;2023-09-08T01:35:51;13.55;;;10.20;;
69030;SDS011;56083;48.774;8.942;2023-09-08T01:38:16;16.10;;;9.77;;
69030;SDS011;56083;48.774;8.942;2023-09-08T01:40:42;14.45;;;10.25;;
69030;SDS011;56083;48.774;8.942;2023-09-08T01:43:08;11.65;;;9.77;;
69030;SDS011;56083;48.774;8.942;2023-09-08T01:45:33;15.05;;;10.15;;
69030;SDS011;56083;48.774;8.942;2023-09-08T01:47:59;15.25;;;10.20;;
69030;SDS011;56083;48.774;8.942;2023-09-08T01:50:24;16.85;;;11.10;;
69030;SDS011;56083;48.774;8.942;2023-09-08T01:52:50;15.02;;;10.90;;
69030;SDS011;56083;48.774;8.942;2023-09-08T01:55:16;19.73;;;10.90;;
69030;SDS011;56083;48.774;8.942;2023-09-08T01:57:42;18.13;;;11.32;;
69030;SDS011;56083;48.774;8.942;2023-09-08T02:00:09;16.10;;;10.85;;
69030;SDS011;56083;48.774;8.942;2023-09-08T02:02:35;16.25;;;11.15;;
69030;SDS011;56083;48.774;8.942;2023-09-08T02:05:01;18.27;;;10.93;;
69030;SDS011;56083;48.774;8.942;2023-09-08T02:07:26;15.93;;;10.80;;
69030;SDS011;56083;48.774;8.942;2023-09-08T02:09:52;16.40;;;11.02;;
69030;SDS011;56083;48.774;8.942;2023-09-08T02:12:17;16.33;;;10.82;;
69030;SDS011;56083;48.774;8.942;2023-09-08T02:14:43;13.35;;;10.55;;
69030;SDS011;56083;48.774;8.942;2023-09-08T02:17:09;13.77;;;10.05;;
69030;SDS011;56083;48.774;8.942;2023-09-08T02:19:34;15.18;;;10.30;;
69030;SDS011;56083;48.774;8.942;2023-09-08T02:22:00;16.35;;;10.40;;
69030;SDS011;56083;48.774;8.942;2023-09-08T02:24:26;16.98;;;10.55;;
69030;SDS011;56083;48.774;8.942;2023-09-08T02:26:53;13.20;;;10.00;;
69030;SDS011;56083;48.774;8.942;2023-09-08T02:29:18;14.50;;;10.25;;
69030;SDS011;56083;48.774;8.942;2023-09-08T02:31:44;13.35;;;10.25;;
69030;SDS011;56083;48.774;8.942;2023-09-08T02:34:10;17.38;;;10.32;;
69030;SDS011;56083;48.774;8.942;2023-09-08T02:36:37;16.38;;;10.98;;
69030;SDS011;56083;48.774;8.942;2023-09-08T02:39:03;14.32;;;10.40;;
69030;SDS011;56083;48.774;8.942;2023-09-08T02:41:29;13.20;;;10.25;;
69030;SDS011;56083;48.774;8.942;2023-09-08T02:43:55;14.00;;;10.43;;
69030;SDS011;56083;48.774;8.942;2023-09-08T02:46:21;16.20;;;12.27;;
69030;SDS011;56083;48.774;8.942;2023-09-08T02:48:47;19.17;;;12.93;;
69030;SDS011;56083;48.774;8.942;2023-09-08T02:51:12;16.98;;;11.57;;
69030;SDS011;56083;48.774;8.942;2023-09-08T02:53:38;17.88;;;12.80;;
69030;SDS011;56083;48.774;8.942;2023-09-08T02:56:03;17.38;;;12.57;;
69030;SDS011;56083;48.774;8.942;2023-09-08T02:58:30;17.17;;;12.50;;
69030;SDS011;56083;48.774;8.942;2023-09-08T03:01:08;17.45;;;13.05;;
69030;SDS011;56083;48.774;8.942;2023-09-08T03:03:46;23.27;;;12.90;;
69030;SDS011;56083;48.774;8.942;2023-09-08T03:06:17;15.88;;;12.73;;
69030;SDS011;56083;48.774;8.942;2023-09-08T03:08:44;16.85;;;12.10;;
69030;SDS011;56083;48.774;8.942;2023-09-08T03:11:10;15.43;;;11.98;;
69030;SDS011;56083;48.774;8.942;2023-09-08T03:13:35;17.95;;;12.32;;
69030;SDS011;56083;48.774;8.942;2023-09-08T03:16:01;18.92;;;12.88;;
69030;SDS011;56083;48.774;8.942;2023-09-08T03:18:29;18.33;;;12.50;;
69030;SDS011;56083;48.774;8.942;2023-09-08T03:20:54;18.52;;;12.05;;
69030;SDS011;56083;48.774;8.942;2023-09-08T03:23:20;15.85;;;11.57;;
69030;SDS011;56083;48.774;8.942;2023-09-08T03:25:45;16.38;;;12.30;;
69030;SDS011;56083;48.774;8.942;2023-09-08T03:28:14;14.80;;;11.77;;
69030;SDS011;56083;48.774;8.942;2023-09-08T03:30:40;15.05;;;12.18;;
69030;SDS011;56083;48.774;8.942;2023-09-08T03:33:05;13.75;;;11.68;;
69030;SDS011;56083;48.774;8.942;2023-09-08T03:35:31;18.05;;;12.70;;
69030;SDS011;56083;48.774;8.942;2023-09-08T03:37:57;18.67;;;11.85;;
69030;SDS011;56083;48.774;8.942;2023-09-08T03:40:23;15.30;;;11.40;;
69030;SDS011;56083;48.774;8.942;2023-09-08T03:42:49;16.83;;;11.65;;
69030;SDS011;56083;48.774;8.942;2023-09-08T03:45:14;18.17;;;12.20;;
69030;SDS011;56083;48.774;8.942;2023-09-08T03:47:40;15.65;;;10.95;;
69030;SDS011;56083;48.774;8.942;2023-09-08T03:50:06;18.60;;;12.07;;
69030;SDS011;56083;48.774;8.942;2023-09-08T03:52:32;15.43;;;11.57;;
69030;SDS011;56083;48.774;8.942;2023-09-08T03:54:57;15.52;;;11.75;;
69030;SDS011;56083;48.774;8.942;2023-09-08T03:57:23;19.33;;;11.88;;
69030;SDS011;56083;48.774;8.942;2023-09-08T03:59:49;21.08;;;11.93;;
69030;SDS011;56083;48.774;8.942;2023-09-08T04:02:14;17.25;;;11.70;;
69030;SDS011;56083;48.774;8.942;2023-09-08T04:04:40;14.73;;;11.23;;
69030;SDS011;56083;48.774;8.942;2023-09-08T04:07:05;14.77;;;11.45;;
69030;SDS011;56083;48.774;8.942;2023-09-08T04:09:31;16.98;;;11.48;;
69030;SDS011;56083;48.774;8.942;2023-09-08T04:11:57;17.60;;;11.50;;
69030;SDS011;56083;48.774;8.942;2023-09-08T04:14:22;15.13;;;11.23;;
69030;SDS011;56083;48.774;8.942;2023-09-08T04:16:53;17.48;;;10.52;;
69030;SDS011;56083;48.774;8.942;2023-09-08T04:19:19;22.50;;;11.20;;
69030;SDS011;56083;48.774;8.942;2023-09-08T04:21:44;14.48;;;11.02;;
69030;SDS011;56083;48.774;8.942;2023-09-08T04:24:11;16.92;;;11.13;;
69030;SDS011;56083;48.774;8.942;2023-09-08T04:26:37;18.40;;;12.07;;
69030;SDS011;56083;48.774;8.942;2023-09-08T04:29:02;17.25;;;11.82;;
69030;SDS011;56083;48.774;8.942;2023-09-08T04:31:28;23.77;;;11.70;;
69030;SDS011;56083;48.774;8.942;2023-09-08T04:33:54;15.05;;;11.18;;
69030;SDS011;56083;48.774;8.942;2023-09-08T04:36:19;16.58;;;10.82;;
69030;SDS011;56083;48.774;8.942;2023-09-08T04:38:45;16.90;;;11.90;;
69030;SDS011;56083;48.774;8.942;2023-09-08T04:41:11;17.98;;;12.57;;
69030;SDS011;56083;48.774;8.942;2023-09-08T04:43:36;16.58;;;11.23;;
69030;SDS011;56083;48.774;8.942;2023-09-08T04:46:02;19.15;;;12.25;;
69030;SDS011;56083;48.774;8.942;2023-09-08T04:48:28;16.40;;;11.85;;
69030;SDS011;56083;48.774;8.942;2023-09-08T04:50:54;15.30;;;12.88;;
69030;SDS011;56083;48.774;8.942;2023-09-08T04:53:21;18.35;;;13.25;;
69030;SDS011;56083;48.774;8.942;2023-09-08T04:55:46;17.92;;;13.02;;
69030;SDS011;56083;48.774;8.942;2023-09-08T04:58:12;19.92;;;12.70;;
69030;SDS011;56083;48.774;8.942;2023-09-08T05:00:37;17.65;;;11.65;;
69030;SDS011;56083;48.774;8.942;2023-09-08T05:03:04;15.50;;;11.80;;
69030;SDS011;56083;48.774;8.942;2023-09-08T05:05:30;15.40;;;11.18;;
69030;SDS011;56083;48.774;8.942;2023-09-08T05:07:56;19.02;;;10.45;;
69030;SDS011;56083;48.774;8.942;2023-09-08T05:10:24;12.68;;;10.30;;
69030;SDS011;56083;48.774;8.942;2023-09-08T05:12:50;17.50;;;10.68;;
69030;SDS011;56083;48.774;8.942;2023-09-08T05:15:16;14.43;;;10.30;;
69030;SDS011;56083;48.774;8.942;2023-09-08T05:17:42;16.92;;;10.52;;
69030;SDS011;56083;48.774;8.942;2023-09-08T05:20:08;12.57;;;10.50;;
69030;SDS011;56083;48.774;8.942;2023-09-08T05:22:34;16.20;;;11.35;;
69030;SDS011;56083;48.774;8.942;2023-09-08T05:25:00;17.30;;;10.70;;
69030;SDS011;56083;48.774;8.942;2023-09-08T05:27:25;13.50;;;10.95;;
69030;SDS011;56083;48.774;8.942;2023-09-08T05:29:51;17.17;;;11.00;;
69030;SDS011;56083;48.774;8.942;2023-09-08T05:32:17;16.00;;;11.27;;
69030;SDS011;56083;48.774;8.942;2023-09-08T05:34:42;14.55;;;11.20;;
69030;SDS011;56083;48.774;8.942;2023-09-08T05:37:08;14.57;;;11.38;;
69030;SDS011;56083;48.774;8.942;2023-09-08T05:39:34;14.38;;;10.88;;
69030;SDS011;56083;48.774;8.942;2023-09-08T05:41:59;14.70;;;10.82;;
69030;SDS011;56083;48.774;8.942;2023-09-08T05:44:25;17.70;;;11.48;;
69030;SDS011;56083;48.774;8.942;2023-09-08T05:46:50;16.58;;;10.93;;
69030;SDS011;56083;48.774;8.942;2023-09-08T05:49:16;12.82;;;10.23;;
69030;SDS011;56083;48.774;8.942;2023-09-08T05:51:43;19.52;;;11.13;;
69030;SDS011;56083;48.774;8.942;2023-09-08T05:54:09;16.00;;;10.65;;
69030;SDS011;56083;48.774;8.942;2023-09-08T05:56:36;17.85;;;10.25;;
69030;SDS011;56083;48.774;8.942;2023-09-08T05:59:02;14.05;;;11.10;;
69030;SDS011;56083;48.774;8.942;2023-09-08T06:01:28;16.17;;;11.07;;
69030;SDS011;56083;48.774;8.942;2023-09-08T06:03:55;18.10;;;10.95;;
69030;SDS011;56083;48.774;8.942;2023-09-08T06:06:20;16.67;;;10.63;;
69030;SDS011;56083;48.774;8.942;2023-09-08T06:08:47;17.65;;;10.65;;
69030;SDS011;56083;48.774;8.942;2023-09-08T06:11:12;20.65;;;10.30;;
69030;SDS011;56083;48.774;8.942;2023-09-08T06:13:39;13.32;;;9.88;;
69030;SDS011;56083;48.774;8.942;2023-09-08T06:16:04;12.18;;;9.70;;
69030;SDS011;56083;48.774;8.942;2023-09-08T06:18:30;18.38;;;9.20;;
69030;SDS011;56083;48.774;8.942;2023-09-08T06:20:56;16.05;;;9.02;;
69030;SDS011;56083;48.774;8.942;2023-09-08T06:23:22;14.23;;;8.68;;
69030;SDS011;56083;48.774;8.942;2023-09-08T06:25:51;12.23;;;7.78;;
69030;SDS011;56083;48.774;8.942;2023-09-08T06:28:22;13.05;;;7.35;;
69030;SDS011;56083;48.774;8.942;2023-09-08T06:30:47;17.50;;;8.13;;
69030;SDS011;56083;48.774;8.942;2023-09-08T06:33:13;14.38;;;7.20;;
69030;SDS011;56083;48.774;8.942;2023-09-08T06:35:39;12.05;;;6.90;;
69030;SDS011;56083;48.774;8.942;2023-09-08T06:38:04;11.88;;;6.80;;
69030;SDS011;56083;48.774;8.942;2023-09-08T06:40:30;11.90;;;6.60;;
69030;SDS011;56083;48.774;8.942;2023-09-08T06:42:55;18.45;;;7.70;;
69030;SDS011;56083;48.774;8.942;2023-09-08T06:45:22;16.83;;;7.43;;
69030;SDS011;56083;48.774;8.942;2023-09-08T06:47:47;12.70;;;7.82;;
69030;SDS011;56083;48.774;8.942;2023-09-08T06:50:15;13.73;;;6.82;;
69030;SDS011;56083;48.774;8.942;2023-09-08T06:52:40;8.80;;;6.10;;
69030;SDS011;56083;48.774;8.942;2023-09-08T06:55:06;10.95;;;7.05;;
69030;SDS011;56083;48.774;8.942;2023-09-08T06:57:32;14.82;;;7.60;;
69030;SDS011;56083;48.774;8.942;2023-09-08T06:59:58;15.38;;;7.38;;
69030;SDS011;56083;48.774;8.942;2023-09-08T07:02:23;22.23;;;7.47;;
69030;SDS011;56083;48.774;8.942;2023-09-08T07:04:49;18.75;;;7.85;;
69030;SDS011;56083;48.774;8.942;2023-09-08T07:07:16;13.55;;;7.07;;
69030;SDS011;56083;48.774;8.942;2023-09-08T07:09:43;15.30;;;6.38;;
69030;SDS011;56083;48.774;8.942;2023-09-08T07:12:08;15.50;;;6.55;;
69030;SDS011;56083;48.774;8.942;2023-09-08T07:14:34;13.10;;;6.78;;
69030;SDS011;56083;48.774;8.942;2023-09-08T07:16:59;11.32;;;7.03;;
69030;SDS011;56083;48.774;8.942;2023-09-08T07:19:26;15.30;;;7.25;;
69030;SDS011;56083;48.774;8.942;2023-09-08T07:21:52;14.90;;;6.72;;
69030;SDS011;56083;48.774;8.942;2023-09-08T07:24:17;13.18;;;6.55;;
69030;SDS011;56083;48.774;8.942;2023-09-08T07:26:43;11.52;;;7.15;;
69030;SDS011;56083;48.774;8.942;2023-09-08T07:29:09;15.48;;;6.88;;
69030;SDS011;56083;48.774;8.942;2023-09-08T07:31:34;15.02;;;6.00;;
69030;SDS011;56083;48.774;8.942;2023-09-08T07:34:00;21.48;;;6.43;;
69030;SDS011;56083;48.774;8.942;2023-09-08T07:36:25;12.65;;;6.57;;
69030;SDS011;56083;48.774;8.942;2023-09-08T07:38:51;16.10;;;5.85;;
69030;SDS011;56083;48.774;8.942;2023-09-08T07:41:17;16.65;;;5.90;;
69030;SDS011;56083;48.774;8.942;2023-09-08T07:43:42;16.23;;;6.50;;
69030;SDS011;56083;48.774;8.942;2023-09-08T07:46:10;9.80;;;6.25;;
69030;SDS011;56083;48.774;8.942;2023-09-08T07:48:36;12.85;;;6.88;;
69030;SDS011;56083;48.774;8.942;2023-09-08T07:51:02;14.35;;;6.70;;
69030;SDS011;56083;48.774;8.942;2023-09-08T07:53:27;12.95;;;5.93;;
69030;SDS011;56083;48.774;8.942;2023-09-08T07:55:53;13.35;;;6.47;;
69030;SDS011;56083;48.774;8.942;2023-09-08T07:58:19;12.18;;;6.15;;
69030;SDS011;56083;48.774;8.942;2023-09-08T08:00:45;12.45;;;6.05;;
69030;SDS011;56083;48.774;8.942;2023-09-08T08:03:10;13.73;;;5.28;;
69030;SDS011;56083;48.774;8.942;2023-09-08T08:05:36;18.25;;;5.20;;
69030;SDS011;56083;48.774;8.942;2023-09-08T08:08:02;18.83;;;6.72;;
69030;SDS011;56083;48.774;8.942;2023-09-08T08:10:27;19.15;;;6.40;;
69030;SDS011;56083;48.774;8.942;2023-09-08T08:12:53;18.92;;;5.43;;
69030;SDS011;56083;48.774;8.942;2023-09-08T08:15:19;19.50;;;5.55;;
69030;SDS011;56083;48.774;8.942;2023-09-08T08:17:48;17.90;;;5.15;;
69030;SDS011;56083;48.774;8.942;2023-09-08T08:20:14;18.25;;;5.10;;
69030;SDS011;56083;48.774;8.942;2023-09-08T08:22:45;16.58;;;4.82;;
69030;SDS011;56083;48.774;8.942;2023-09-08T08:25:11;17.35;;;4.90;;
69030;SDS011;56083;48.774;8.942;2023-09-08T08:27:38;15.38;;;4.70;;
69030;SDS011;56083;48.774;8.942;2023-09-08T08:30:04;16.58;;;5.00;;
69030;SDS011;56083;48.774;8.942;2023-09-08T08:32:30;19.38;;;5.20;;
69030;SDS011;56083;48.774;8.942;2023-09-08T08:34:56;12.15;;;4.80;;
69030;SDS011;56083;48.774;8.942;2023-09-08T08:37:22;12.50;;;4.90;;
69030;SDS011;56083;48.774;8.942;2023-09-08T08:39:48;18.40;;;4.90;;
69030;SDS011;56083;48.774;8.942;2023-09-08T08:42:13;18.98;;;4.88;;
69030;SDS011;56083;48.774;8.942;2023-09-08T08:44:39;11.57;;;5.38;;
69030;SDS011;56083;48.774;8.942;2023-09-08T08:47:10;14.57;;;4.55;;
69030;SDS011;56083;48.774;8.942;2023-09-08T08:49:36;14.43;;;4.47;;
69030;SDS011;56083;48.774;8.942;2023-09-08T08:52:03;8.40;;;4.38;;
69030;SDS011;56083;48.774;8.942;2023-09-08T08:54:37;18.90;;;5.00;;
69030;SDS011;56083;48.774;8.942;2023-09-08T08:57:04;14.77;;;4.70;;
69030;SDS011;56083;48.774;8.942;2023-09-08T08:59:31;15.55;;;4.38;;
69030;SDS011;56083;48.774;8.942;2023-09-08T09:01:58;9.65;;;4.63;;
69030;SDS011;56083;48.774;8.942;2023-09-08T09:04:25;18.58;;;4.78;;
69030;SDS011;56083;48.774;8.942;2023-09-08T09:06:52;18.48;;;4.55;;
69030;SDS011;56083;48.774;8.942;2023-09-08T09:09:18;7.97;;;4.00;;
69030;SDS011;56083;48.774;8.942;2023-09-08T09:11:44;10.15;;;4.10;;
69030;SDS011;56083;48.774;8.942;2023-09-08T09:14:10;11.70;;;4.18;;
69030;SDS011;56083;48.774;8.942;2023-09-08T09:16:40;6.90;;;3.90;;
69030;SDS011;56083;48.774;8.942;2023-09-08T09:19:09;10.77;;;4.05;;
69030;SDS011;56083;48.774;8.942;2023-09-08T09:21:47;8.18;;;4.10;;
69030;SDS011;56083;48.774;8.942;2023-09-08T09:24:16;7.93;;;4.05;;
69030;SDS011;56083;48.774;8.942;2023-09-08T09:26:42;7.28;;;4.07;;
69030;SDS011;56083;48.774;8.942;2023-09-08T09:29:17;7.93;;;4.38;;
69030;SDS011;56083;48.774;8.942;2023-09-08T09:31:56;12.88;;;4.80;;
69030;SDS011;56083;48.774;8.942;2023-09-08T09:34:26;9.07;;;4.10;;
69030;SDS011;56083;48.774;8.942;2023-09-08T09:36:52;9.98;;;4.80;;
69030;SDS011;56083;48.774;8.942;2023-09-08T09:39:22;9.93;;;4.57;;
69030;SDS011;56083;48.774;8.942;2023-09-08T09:41:49;10.30;;;4.88;;
69030;SDS011;56083;48.774;8.942;2023-09-08T09:44:18;6.82;;;4.30;;
69030;SDS011;56083;48.774;8.942;2023-09-08T09:46:45;8.57;;;4.50;;
69030;SDS011;56083;48.774;8.942;2023-09-08T09:49:11;8.43;;;4.30;;
69030;SDS011;56083;48.774;8.942;2023-09-08T09:51:44;14.05;;;4.63;;
69030;SDS011;56083;48.774;8.942;2023-09-08T09:54:12;14.30;;;4.03;;
69030;SDS011;56083;48.774;8.942;2023-09-08T09:56:38;6.40;;;4.10;;
69030;SDS011;56083;48.774;8.942;2023-09-08T09:59:07;13.25;;;4.25;;
69030;SDS011;56083;48.774;8.942;2023-09-08T10:01:34;8.07;;;4.40;;
69030;SDS011;56083;48.774;8.942;2023-09-08T10:04:01;9.82;;;4.13;;
69030;SDS011;56083;48.774;8.942;2023-09-08T10:06:29;10.68;;;4.53;;
69030;SDS011;56083;48.774;8.942;2023-09-08T10:09:01;12.00;;;4.55;;
69030;SDS011;56083;48.774;8.942;2023-09-08T10:14:30;10.15;;;4.40;;
69030;SDS011;56083;48.774;8.942;2023-09-08T10:16:59;9.82;;;4.35;;
69030;SDS011;56083;48.774;8.942;2023-09-08T10:19:25;7.35;;;3.95;;
69030;SDS011;56083;48.774;8.942;2023-09-08T10:21:51;12.10;;;4.40;;
69030;SDS011;56083;48.774;8.942;2023-09-08T10:24:29;11.63;;;4.22;;
69030;SDS011;56083;48.774;8.942;2023-09-08T10:27:08;13.68;;;4.30;;
69030;SDS011;56083;48.774;8.942;2023-09-08T10:29:35;9.70;;;3.95;;
69030;SDS011;56083;48.774;8.942;2023-09-08T10:32:02;9.52;;;4.35;;
69030;SDS011;56083;48.774;8.942;2023-09-08T10:34:29;10.25;;;4.20;;
69030;SDS011;56083;48.774;8.942;2023-09-08T10:36:56;11.18;;;4.10;;
69030;SDS011;56083;48.774;8.942;2023-09-08T10:39:32;5.60;;;4.35;;
69030;SDS011;56083;48.774;8.942;2023-09-08T10:45:02;8.82;;;4.20;;
69030;SDS011;56083;48.774;8.942;2023-09-08T10:50:15;8.60;;;4.80;;
69030;SDS011;56083;48.774;8.942;2023-09-08T10:52:44;13.88;;;4.53;;
69030;SDS011;56083;48.774;8.942;2023-09-08T10:55:11;8.70;;;4.78;;
69030;SDS011;56083;48.774;8.942;2023-09-08T10:57:44;10.27;;;4.45;;
69030;SDS011;56083;48.774;8.942;2023-09-08T11:00:10;8.95;;;4.32;;
69030;SDS011;56083;48.774;8.942;2023-09-08T11:02:47;9.52;;;5.15;;
69030;SDS011;56083;48.774;8.942;2023-09-08T11:07:41;8.32;;;4.50;;
69030;SDS011;56083;48.774;8.942;2023-09-08T11:10:08;8.55;;;4.50;;
69030;SDS011;56083;48.774;8.942;2023-09-08T11:12:34;16.08;;;4.85;;
69030;SDS011;56083;48.774;8.942;2023-09-08T11:15:01;8.73;;;4.78;;
69030;SDS011;56083;48.774;8.942;2023-09-08T11:17:30;9.15;;;4.90;;
69030;SDS011;56083;48.774;8.942;2023-09-08T11:19:56;8.43;;;4.60;;
69030;SDS011;56083;48.774;8.942;2023-09-08T11:22:23;8.80;;;4.28;;
69030;SDS011;56083;48.774;8.942;2023-09-08T11:24:50;8.45;;;4.82;;
69030;SDS011;56083;48.774;8.942;2023-09-08T11:27:17;11.50;;;4.60;;
69030;SDS011;56083;48.774;8.942;2023-09-08T11:29:44;8.20;;;4.32;;
69030;SDS011;56083;48.774;8.942;2023-09-08T11:32:10;14.80;;;4.75;;
69030;SDS011;56083;48.774;8.942;2023-09-08T11:34:36;8.45;;;4.53;;
69030;SDS011;56083;48.774;8.942;2023-09-08T11:37:11;11.43;;;4.80;;
69030;SDS011;56083;48.774;8.942;2023-09-08T11:39:47;8.27;;;4.78;;
69030;SDS011;56083;48.774;8.942;2023-09-08T11:42:13;7.97;;;4.95;;
69030;SDS011;56083;48.774;8.942;2023-09-08T11:44:40;10.18;;;4.90;;
69030;SDS011;56083;48.774;8.942;2023-09-08T11:47:08;8.18;;;4.90;;
69030;SDS011;56083;48.774;8.942;2023-09-08T11:49:38;7.00;;;4.38;;
69030;SDS011;56083;48.774;8.942;2023-09-08T11:52:05;10.70;;;4.90;;
69030;SDS011;56083;48.774;8.942;2023-09-08T11:54:31;12.10;;;4.85;;
69030;SDS011;56083;48.774;8.942;2023-09-08T11:56:59;9.43;;;4.65;;
69030;SDS011;56083;48.774;8.942;2023-09-08T11:59:27;14.63;;;4.43;;
69030;SDS011;56083;48.774;8.942;2023-09-08T12:01:53;13.70;;;5.38;;
69030;SDS011;56083;48.774;8.942;2023-09-08T12:04:20;9.35;;;4.47;;
69030;SDS011;56083;48.774;8.942;2023-09-08T12:06:46;9.07;;;5.05;;
69030;SDS011;56083;48.774;8.942;2023-09-08T12:09:16;6.93;;;4.90;;
69030;SDS011;56083;48.774;8.942;2023-09-08T12:11:42;16.88;;;4.75;;
69030;SDS011;56083;48.774;8.942;2023-09-08T12:14:11;12.27;;;4.78;;
69030;SDS011;56083;48.774;8.942;2023-09-08T12:16:38;13.45;;;4.68;;
69030;SDS011;56083;48.774;8.942;2023-09-08T12:19:04;8.70;;;4.60;;
69030;SDS011;56083;48.774;8.942;2023-09-08T12:21:31;14.32;;;4.65;;
69030;SDS011;56083;48.774;8.942;2023-09-08T12:23:57;10.40;;;5.00;;
69030;SDS011;56083;48.774;8.942;2023-09-08T12:26:26;16.55;;;5.10;;
69030;SDS011;56083;48.774;8.942;2023-09-08T12:28:52;13.18;;;5.38;;
69030;SDS011;56083;48.774;8.942;2023-09-08T12:31:18;13.48;;;4.82;;
69030;SDS011;56083;48.774;8.942;2023-09-08T12:33:44;6.63;;;4.30;;
69030;SDS011;56083;48.774;8.942;2023-09-08T12:36:10;10.73;;;4.80;;
69030;SDS011;56083;48.774;8.942;2023-09-08T12:38:40;6.40;;;4.63;;
69030;SDS011;56083;48.774;8.942;2023-09-08T12:41:06;8.63;;;4.50;;
69030;SDS011;56083;48.774;8.942;2023-09-08T12:43:32;9.40;;;4.53;;
69030;SDS011;56083;48.774;8.942;2023-09-08T12:45:58;9.45;;;4.53;;
69030;SDS011;56083;48.774;8.942;2023-09-08T12:48:23;8.13;;;4.38;;
69030;SDS011;56083;48.774;8.942;2023-09-08T12:50:49;16.05;;;4.70;;
69030;SDS011;56083;48.774;8.942;2023-09-08T12:53:15;9.88;;;4.50;;
69030;SDS011;56083;48.774;8.942;2023-09-08T12:55:45;8.75;;;4.22;;
69030;SDS011;56083;48.774;8.942;2023-09-08T12:58:11;8.25;;;4.22;;
69030;SDS011;56083;48.774;8.942;2023-09-08T13:00:36;8.45;;;4.07;;
69030;SDS011;56083;48.774;8.942;2023-09-08T13:03:02;9.93;;;4.05;;
69030;SDS011;56083;48.774;8.942;2023-09-08T13:05:28;11.52;;;4.65;;
69030;SDS011;56083;48.774;8.942;2023-09-08T13:07:53;12.38;;;4.45;;
69030;SDS011;56083;48.774;8.942;2023-09-08T13:10:19;10.20;;;4.47;;
69030;SDS011;56083;48.774;8.942;2023-09-08T13:12:45;6.38;;;4.60;;
69030;SDS011;56083;48.774;8.942;2023-09-08T13:15:11;8.23;;;4.05;;
69030;SDS011;56083;48.774;8.942;2023-09-08T13:17:36;9.32;;;4.57;;
69030;SDS011;56083;48.774;8.942;2023-09-08T13:20:02;10.43;;;4.55;;
69030;SDS011;56083;48.774;8.942;2023-09-08T13:22:28;7.10;;;4.10;;
69030;SDS011;56083;48.774;8.942;2023-09-08T13:24:54;9.13;;;4.63;;
69030;SDS011;56083;48.774;8.942;2023-09-08T13:27:20;9.95;;;4.32;;
69030;SDS011;56083;48.774;8.942;2023-09-08T13:29:45;9.30;;;4.32;;
69030;SDS011;56083;48.774;8.942;2023-09-08T13:32:11;10.13;;;4.20;;
69030;SDS011;56083;48.774;8.942;2023-09-08T13:34:37;10.07;;;4.65;;
69030;SDS011;56083;48.774;8.942;2023-09-08T13:37:03;7.15;;;4.35;;
69030;SDS011;56083;48.774;8.942;2023-09-08T13:39:29;10.13;;;4.30;;
69030;SDS011;56083;48.774;8.942;2023-09-08T13:41:55;10.57;;;4.47;;
69030;SDS011;56083;48.774;8.942;2023-09-08T13:44:25;15.35;;;4.55;;
69030;SDS011;56083;48.774;8.942;2023-09-08T13:46:50;8.02;;;4.20;;
69030;SDS011;56083;48.774;8.942;2023-09-08T13:49:18;9.30;;;4.32;;
69030;SDS011;56083;48.774;8.942;2023-09-08T13:51:44;8.60;;;4.25;;
69030;SDS011;56083;48.774;8.942;2023-09-08T13:54:10;7.75;;;3.80;;
69030;SDS011;56083;48.774;8.942;2023-09-08T13:56:40;10.50;;;4.70;;
69030;SDS011;56083;48.774;8.942;2023-09-08T13:59:06;6.22;;;3.95;;
69030;SDS011;56083;48.774;8.942;2023-09-08T14:01:33;9.57;;;4.47;;
69030;SDS011;56083;48.774;8.942;2023-09-08T14:04:00;13.27;;;4.50;;
69030;SDS011;56083;48.774;8.942;2023-09-08T14:06:26;9.00;;;3.97;;
69030;SDS011;56083;48.774;8.942;2023-09-08T14:08:53;12.38;;;4.47;;
69030;SDS011;56083;48.774;8.942;2023-09-08T14:11:18;9.70;;;4.13;;
69030;SDS011;56083;48.774;8.942;2023-09-08T14:13:44;11.75;;;4.53;;
69030;SDS011;56083;48.774;8.942;2023-09-08T14:16:13;17.02;;;4.43;;
69030;SDS011;56083;48.774;8.942;2023-09-08T14:18:39;5.60;;;4.20;;
69030;SDS011;56083;48.774;8.942;2023-09-08T14:21:05;6.55;;;4.30;;
69030;SDS011;56083;48.774;8.942;2023-09-08T14:23:31;11.18;;;4.18;;
69030;SDS011;56083;48.774;8.942;2023-09-08T14:25:59;8.65;;;4.22;;
69030;SDS011;56083;48.774;8.942;2023-09-08T14:28:24;10.70;;;4.50;;
69030;SDS011;56083;48.774;8.942;2023-09-08T14:30:51;13.48;;;3.90;;
69030;SDS011;56083;48.774;8.942;2023-09-08T14:33:17;8.90;;;4.32;;
69030;SDS011;56083;48.774;8.942;2023-09-08T14:35:42;10.60;;;4.30;;
69030;SDS011;56083;48.774;8.942;2023-09-08T14:38:09;6.60;;;3.72;;
69030;SDS011;56083;48.774;8.942;2023-09-08T14:40:35;11.80;;;4.65;;
69030;SDS011;56083;48.774;8.942;2023-09-08T14:43:00;9.43;;;4.38;;